Lynn, Alabama
Current Conditions -  °F | °C
As of 3:56 PM on Thursday 23 Oct 2014 (Local Time) from K1M4 Reporting Station
Clear Clear  
Wind Chill: 65°   Ceiling: Unl
Heat Index: 65°   Visibility: 10mi
Dew Point: 44°   Wind: 6mph
Humidity: 46%   Direction: 350°N
Pressure: 30.11"   Gusts: NA
Location:  34.05°N, 87.55°W
Report Text: K1M4 232056Z AUTO 35005KT 10SM CLR 18/07 A3011 RMK AO2 56015 T01830066 SLP208
Loading
Personal Weather Stations






























Interactive Weather Map New forecast layout! Learn more

10-Day Weather Forecast

Advertisements
Track Severe Weather on mobile